createdAt,value
2018-07-30T00:02:47.555Z,21.47
2018-07-30T00:07:44.976Z,21.23
2018-07-30T00:12:42.428Z,21.16
2018-07-30T00:17:39.831Z,21.52
2018-07-30T00:22:37.266Z,21.46
2018-07-30T00:27:34.694Z,21.42
2018-07-30T00:32:32.088Z,21.20
2018-07-30T00:37:29.473Z,20.87
2018-07-30T00:42:26.882Z,20.73
2018-07-30T00:47:24.298Z,20.49
2018-07-30T00:52:21.704Z,20.26
2018-07-30T00:57:19.100Z,20.05
2018-07-30T01:02:16.503Z,20.50
2018-07-30T01:07:13.909Z,20.17
2018-07-30T01:12:11.310Z,20.38
2018-07-30T01:17:08.714Z,20.36
2018-07-30T01:22:06.255Z,20.40
2018-07-30T01:27:04.040Z,20.41
2018-07-30T01:32:01.442Z,20.31
2018-07-30T01:36:58.835Z,20.45
2018-07-30T01:41:56.232Z,20.35
2018-07-30T01:46:53.643Z,20.52
2018-07-30T01:51:51.106Z,20.33
2018-07-30T01:56:48.547Z,20.30
2018-07-30T02:01:45.978Z,20.43
2018-07-30T02:06:43.427Z,20.90
2018-07-30T02:11:40.899Z,20.49
2018-07-30T02:16:38.295Z,20.49
2018-07-30T02:21:35.748Z,20.44
2018-07-30T02:26:33.171Z,20.38
2018-07-30T02:31:30.558Z,20.14
2018-07-30T02:36:28.018Z,20.04
2018-07-30T02:41:25.434Z,20.05
2018-07-30T02:46:22.839Z,20.06
2018-07-30T02:51:20.227Z,20.07
2018-07-30T02:56:17.668Z,19.60
2018-07-30T03:01:15.128Z,19.40
2018-07-30T03:06:12.559Z,19.35
2018-07-30T03:11:09.968Z,19.40
2018-07-30T03:16:07.531Z,19.48
2018-07-30T03:21:05.005Z,19.36
2018-07-30T03:26:02.476Z,19.60
2018-07-30T03:30:59.972Z,19.29
2018-07-30T03:35:57.397Z,19.32
2018-07-30T03:40:54.833Z,19.30
2018-07-30T03:45:52.279Z,19.39
2018-07-30T03:50:49.724Z,19.03
2018-07-30T03:55:47.166Z,19.05
2018-07-30T04:00:44.657Z,19.07
2018-07-30T04:05:42.109Z,18.92
2018-07-30T04:10:39.472Z,19.00
2018-07-30T04:15:36.906Z,18.98
2018-07-30T04:20:34.389Z,19.09
2018-07-30T04:25:31.966Z,19.90
2018-07-30T04:30:29.384Z,20.02
2018-07-30T04:35:26.808Z,19.84
2018-07-30T04:40:24.211Z,20.22
2018-07-30T04:45:21.651Z,20.47
2018-07-30T04:50:19.165Z,20.29
2018-07-30T04:55:16.676Z,20.77
2018-07-30T05:00:14.161Z,20.73
2018-07-30T05:05:11.683Z,20.83
2018-07-30T05:10:09.165Z,20.97
2018-07-30T05:15:06.631Z,21.37
2018-07-30T05:20:04.175Z,21.70
2018-07-30T05:25:01.589Z,22.23
2018-07-30T05:29:59.020Z,22.75
2018-07-30T05:34:56.446Z,23.01
2018-07-30T05:39:54.097Z,23.60
2018-07-30T05:44:51.519Z,23.89
2018-07-30T05:49:48.951Z,24.24
2018-07-30T05:54:46.400Z,24.81
2018-07-30T05:59:43.922Z,25.02
2018-07-30T06:04:41.270Z,25.12
2018-07-30T06:09:38.751Z,25.58
2018-07-30T06:14:36.181Z,25.98
2018-07-30T06:19:33.600Z,26.40
2018-07-30T06:24:31.029Z,26.60
2018-07-30T06:29:28.436Z,26.91
2018-07-30T06:34:25.840Z,27.15
2018-07-30T06:39:23.320Z,27.08
2018-07-30T06:44:20.719Z,27.39
2018-07-30T06:49:18.283Z,27.61
2018-07-30T06:54:15.671Z,27.67
2018-07-30T06:59:13.066Z,27.86
2018-07-30T07:04:10.500Z,26.89
2018-07-30T07:09:08.971Z,26.73
2018-07-30T07:14:06.766Z,27.87
2018-07-30T07:19:04.200Z,27.83
2018-07-30T07:24:02.002Z,28.28
2018-07-30T07:28:59.460Z,28.80
2018-07-30T07:33:56.901Z,28.41
2018-07-30T07:38:54.318Z,28.48
2018-07-30T07:43:52.080Z,29.07
2018-07-30T07:48:49.521Z,28.32
2018-07-30T07:53:47.668Z,27.64
2018-07-30T07:58:45.215Z,28.01
2018-07-30T08:03:42.627Z,29.11
2018-07-30T08:08:40.104Z,29.91
2018-07-30T08:13:37.539Z,29.68
2018-07-30T08:18:34.977Z,29.77
2018-07-30T08:23:37.642Z,28.72
2018-07-30T08:28:35.061Z,30.02
2018-07-30T08:33:32.525Z,30.71
2018-07-30T08:38:29.958Z,30.92
2018-07-30T08:43:27.395Z,30.90
2018-07-30T08:48:24.791Z,30.49
2018-07-30T08:53:25.993Z,31.36
2018-07-30T08:58:23.531Z,32.10
2018-07-30T09:03:20.969Z,33.02
2018-07-30T09:08:18.423Z,33.16
2018-07-30T09:13:15.863Z,32.83
2018-07-30T09:18:13.357Z,31.21
2018-07-30T09:23:18.025Z,32.10
2018-07-30T09:28:15.523Z,31.53
2018-07-30T09:33:12.995Z,30.27
2018-07-30T09:38:10.420Z,30.25
2018-07-30T09:43:07.871Z,30.16
2018-07-30T09:48:05.328Z,32.04
2018-07-30T09:53:10.458Z,32.96
2018-07-30T09:58:07.979Z,32.93
2018-07-30T10:03:05.458Z,33.29
2018-07-30T10:08:02.899Z,32.84
2018-07-30T10:13:00.327Z,33.13
2018-07-30T10:17:57.843Z,32.12
2018-07-30T10:22:59.736Z,32.09
2018-07-30T10:27:57.325Z,31.87
2018-07-30T10:32:54.765Z,33.35
2018-07-30T10:37:52.241Z,33.51
2018-07-30T10:42:49.665Z,34.32
2018-07-30T10:47:47.138Z,33.23
2018-07-30T10:52:44.558Z,31.46
2018-07-30T10:57:42.044Z,32.23
2018-07-30T11:02:39.481Z,31.94
2018-07-30T11:07:36.903Z,31.53
2018-07-30T11:12:34.384Z,30.84
2018-07-30T11:17:31.832Z,32.69
2018-07-30T11:22:29.344Z,32.91
2018-07-30T11:27:26.806Z,32.48
2018-07-30T11:32:24.266Z,34.07
2018-07-30T11:37:21.683Z,32.91
2018-07-30T11:42:19.110Z,31.65
2018-07-30T11:47:16.542Z,32.72
2018-07-30T11:52:14.016Z,33.46
2018-07-30T11:57:11.437Z,34.19
2018-07-30T12:02:08.966Z,34.59
2018-07-30T12:07:06.412Z,34.57
2018-07-30T12:12:03.859Z,33.63
2018-07-30T12:17:01.301Z,34.58
2018-07-30T12:21:58.957Z,35.13
2018-07-30T12:26:56.394Z,33.07
2018-07-30T12:31:53.814Z,33.06
2018-07-30T12:36:51.237Z,34.13
2018-07-30T12:41:48.669Z,34.24
2018-07-30T12:46:46.118Z,33.09
2018-07-30T12:51:43.603Z,33.95
2018-07-30T12:56:41.040Z,33.56
2018-07-30T13:01:38.510Z,33.88
2018-07-30T13:06:35.963Z,32.70
2018-07-30T13:11:33.388Z,32.86
2018-07-30T13:16:30.859Z,33.53
2018-07-30T13:21:28.293Z,35.35
2018-07-30T13:26:26.002Z,33.64
2018-07-30T13:31:23.495Z,34.38
2018-07-30T13:36:20.940Z,34.22
2018-07-30T13:41:18.467Z,34.41
2018-07-30T13:46:15.947Z,33.59
2018-07-30T13:51:13.346Z,34.52
2018-07-30T13:56:10.776Z,33.67
2018-07-30T14:01:08.215Z,35.25
2018-07-30T14:06:05.724Z,34.77
2018-07-30T14:11:03.124Z,34.80
2018-07-30T14:16:00.559Z,34.76
2018-07-30T14:20:58.025Z,34.88
2018-07-30T14:25:55.432Z,35.10
2018-07-30T14:30:52.885Z,35.49
2018-07-30T14:35:50.324Z,35.80
2018-07-30T14:40:47.887Z,34.50
2018-07-30T14:45:51.930Z,34.43
2018-07-30T14:50:50.461Z,34.54
2018-07-30T14:55:56.151Z,34.31
2018-07-30T15:00:56.084Z,34.30
2018-07-30T15:05:53.620Z,34.41
2018-07-30T15:10:51.071Z,34.62
2018-07-30T15:15:48.503Z,35.73
2018-07-30T15:20:46.021Z,33.51
2018-07-30T15:25:43.585Z,33.05
2018-07-30T15:30:41.004Z,33.14
2018-07-30T15:35:38.449Z,33.26
2018-07-30T15:40:36.002Z,33.31
2018-07-30T15:45:33.454Z,33.27
2018-07-30T15:50:31.987Z,32.92
2018-07-30T15:55:31.227Z,32.91
2018-07-30T16:00:33.839Z,32.46
2018-07-30T16:05:33.590Z,32.57
2018-07-30T16:10:36.019Z,32.90
2018-07-30T16:15:36.363Z,33.39
2018-07-30T16:20:36.013Z,33.09
2018-07-30T16:25:34.476Z,33.26
2018-07-30T16:30:32.917Z,33.65
2018-07-30T16:35:32.414Z,35.22
2018-07-30T16:40:32.538Z,36.02
2018-07-30T16:45:32.848Z,34.44
2018-07-30T16:50:33.211Z,34.44
2018-07-30T16:55:33.255Z,34.94
2018-07-30T17:00:31.887Z,33.57
2018-07-30T17:05:31.736Z,34.20
2018-07-30T17:10:32.265Z,35.75
2018-07-30T17:15:32.217Z,35.72
2018-07-30T17:20:30.846Z,35.12
2018-07-30T17:25:29.365Z,35.53
2018-07-30T17:30:26.787Z,36.24
2018-07-30T17:35:24.195Z,36.78
2018-07-30T17:40:21.628Z,36.56
2018-07-30T17:45:19.171Z,36.89
2018-07-30T17:50:16.627Z,38.00
2018-07-30T17:55:15.314Z,39.37
2018-07-30T18:00:16.599Z,38.86
2018-07-30T18:05:18.885Z,38.67
2018-07-30T18:10:22.121Z,39.03
2018-07-30T18:15:21.451Z,38.61
2018-07-30T18:20:20.411Z,37.42
2018-07-30T18:25:17.940Z,37.34
2018-07-30T18:30:15.439Z,36.09
2018-07-30T18:35:12.880Z,34.29
2018-07-30T18:40:10.356Z,33.11
2018-07-30T18:45:07.982Z,32.83
2018-07-30T18:50:05.848Z,32.47
2018-07-30T18:55:03.332Z,31.78
2018-07-30T19:00:03.127Z,31.02
2018-07-30T19:05:00.634Z,30.48
2018-07-30T19:09:58.039Z,30.04
2018-07-30T19:14:55.464Z,29.44
2018-07-30T19:19:52.921Z,29.01
2018-07-30T19:24:51.620Z,28.67
2018-07-30T19:29:49.130Z,28.26
2018-07-30T19:34:46.563Z,27.80
2018-07-30T19:39:43.984Z,27.50
2018-07-30T19:44:41.535Z,27.31
2018-07-30T19:49:38.885Z,26.99
2018-07-30T19:54:36.321Z,26.75
2018-07-30T19:59:33.783Z,26.55
2018-07-30T20:04:31.222Z,26.32
2018-07-30T20:09:28.635Z,26.15
2018-07-30T20:14:26.053Z,26.09
2018-07-30T20:19:23.461Z,25.79
2018-07-30T20:24:20.916Z,25.65
2018-07-30T20:29:18.346Z,26.14
2018-07-30T20:34:15.728Z,25.61
2018-07-30T20:39:13.158Z,25.33
2018-07-30T20:44:10.575Z,25.35
2018-07-30T20:49:07.979Z,25.23
2018-07-30T20:54:05.435Z,24.94
2018-07-30T20:59:02.956Z,24.80
2018-07-30T21:04:00.326Z,24.71
2018-07-30T21:08:57.724Z,24.49
2018-07-30T21:13:55.128Z,24.49
2018-07-30T21:18:52.557Z,24.31
2018-07-30T21:23:51.023Z,24.21
2018-07-30T21:28:48.662Z,24.10
2018-07-30T21:33:46.090Z,24.08
2018-07-30T21:38:43.503Z,23.94
2018-07-30T21:43:40.927Z,24.46
2018-07-30T21:48:38.343Z,24.21
2018-07-30T21:53:37.250Z,23.79
2018-07-30T21:58:34.719Z,23.56
2018-07-30T22:03:32.160Z,23.37
2018-07-30T22:08:29.623Z,23.27
2018-07-30T22:13:27.018Z,23.21
2018-07-30T22:18:24.434Z,23.15
2018-07-30T22:23:26.002Z,23.05
2018-07-30T22:28:23.499Z,23.07
2018-07-30T22:33:20.945Z,23.01
2018-07-30T22:38:18.364Z,22.94
2018-07-30T22:43:15.779Z,22.96
2018-07-30T22:48:13.179Z,22.87
2018-07-30T22:53:10.860Z,22.81
2018-07-30T22:58:08.349Z,22.78
2018-07-30T23:03:05.860Z,22.68
2018-07-30T23:08:03.299Z,22.67
2018-07-30T23:13:00.691Z,22.57
2018-07-30T23:17:58.101Z,22.35
2018-07-30T23:22:58.228Z,22.28
2018-07-30T23:27:55.752Z,22.18
2018-07-30T23:32:53.151Z,21.95
2018-07-30T23:37:50.610Z,21.76
2018-07-30T23:42:47.998Z,21.66
2018-07-30T23:47:45.411Z,21.56
2018-07-30T23:52:42.826Z,21.57
2018-07-30T23:57:40.257Z,21.49
